aviador You're here:

UGSB Decoded Metar

BATUMI in GEORGIA
Report Time2018-07-22 03:00:00
UTC Time2018-07-22 03:08:37
Flight Rules vfr VFR
Wind130° at 12 kt
W.Decomp.*RWY 13: 12.0 kt HW 0.8 kt LCW
W.Rank130° ranks 1
Current wind is above 130° avg. (11.6)
Visibility9999 m
Phenomena:N/A
Clouds:Few 026 Hf
Scattered 100 Hf
Expected CloudBase > 800 ft AGL from Temp-Dew spread
CeilingNone
Temp21°C (ISA +6)
Dew Point19°C (88% RH)
AAT19.9°C
QNH1010 hPa
Density Alt1,220 ft
Elevation105 ft
Report Wrong Elevation
Raw Report
METAR UGSB 220300Z 13012KT 9999 FEW026 SCT100 21/19 Q1010 NOSIG=

Extra information for UGSB:More info

Metar Taf Metar & Taf Last 4 Metars F.Rules Stats Wind Profile Meteogram Temp Stats Airport Information Weather charts Add Link Nearby VenuesMetar ALERT Operation Metar Decoded Social comments